Observation data for Graham on 03/10/2018      Previous  Date  Next       Current Mesonet Observations  Soil Data  Daily Summary Page  Observations in Plain Language
KGHS 100600Z 03003KT 13/M09 A2983 RMK A01 T01331094  RH  020%=      5-min Rain = 0
KGHS 100605Z 04005KT 14/M09 A2983 RMK A01 T01351090  RH  020%=      5-min Rain = 0
KGHS 100610Z 04004KT 14/M09 A2982 RMK A01 T01371090  RH  020%=      5-min Rain = 0
KGHS 100615Z 06002KT 14/M09 A2982 RMK A01 T01361090  RH  020%=      5-min Rain = 0
KGHS 100620Z 02003KT 14/M09 A2982 RMK A01 T01361089  RH  020%=      5-min Rain = 0
KGHS 100625Z 02003KT 14/M09 A2982 RMK A01 T01371088  RH  020%=      5-min Rain = 0
KGHS 100630Z 02001KT 14/M09 A2983 RMK A01 T01361088  RH  021%=      5-min Rain = 0
KGHS 100635Z 02001KT 13/M09 A2983 RMK A01 T01341086  RH  021%=      5-min Rain = 0
KGHS 100640Z 02002KT 14/M09 A2983 RMK A01 T01361085  RH  021%=      5-min Rain = 0
KGHS 100645Z 02003KT 14/M09 A2982 RMK A01 T01351086  RH  021%=      5-min Rain = 0
KGHS 100650Z 03002KT 13/M08 A2982 RMK A01 T01331083  RH  022%=      5-min Rain = 0
KGHS 100655Z 03003KT 13/M08 A2982 RMK A01 T01341080  RH  022%=      5-min Rain = 0
KGHS 100700Z 03004KT 14/M08 A2982 RMK A01 T01371077  RH  022%=      5-min Rain = 0
KGHS 100705Z 02004KT 14/M08 A2983 RMK A01 T01371079  RH  022%=      5-min Rain = 0
KGHS 100710Z 02003KT 14/M08 A2983 RMK A01 T01361075  RH  023%=      5-min Rain = 0
KGHS 100715Z 02004KT 14/M08 A2983 RMK A01 T01361082  RH  021%=      5-min Rain = 0
KGHS 100720Z 02004KT 13/M08 A2983 RMK A01 T01311083  RH  022%=      5-min Rain = 0
KGHS 100725Z 04002KT 13/M08 A2983 RMK A01 T01301080  RH  023%=      5-min Rain = 0
KGHS 100730Z 08002KT 13/M07 A2983 RMK A01 T01311074  RH  024%=      5-min Rain = 0
KGHS 100735Z 08001KT 13/M08 A2983 RMK A01 T01321075  RH  023%=      5-min Rain = 0
KGHS 100740Z 07001KT 13/M07 A2983 RMK A01 T01331073  RH  024%=      5-min Rain = 0
KGHS 100745Z 08003KT 14/M07 A2983 RMK A01 T01351072  RH  023%=      5-min Rain = 0
KGHS 100750Z 09002KT 14/M07 A2982 RMK A01 T01361072  RH  023%=      5-min Rain = 0
KGHS 100755Z 08003KT 14/M07 A2982 RMK A01 T01361072  RH  023%=      5-min Rain = 0
KGHS 100800Z 07003KT 14/M07 A2982 RMK A01 T01361071  RH  023%=      5-min Rain = 0
KGHS 100805Z 08004KT 14/M07 A2983 RMK A01 T01361070  RH  024%=      5-min Rain = 0
KGHS 100810Z 10004KT 14/M07 A2982 RMK A01 T01371069  RH  024%=      5-min Rain = 0
KGHS 100815Z 11003KT 14/M07 A2982 RMK A01 T01371069  RH  024%=      5-min Rain = 0
KGHS 100820Z 09003KT 14/M07 A2982 RMK A01 T01371068  RH  024%=      5-min Rain = 0
KGHS 100825Z 08003KT 14/M07 A2982 RMK A01 T01351068  RH  024%=      5-min Rain = 0
KGHS 100830Z 10003KT 14/M07 A2982 RMK A01 T01361066  RH  024%=      5-min Rain = 0
KGHS 100835Z 09003KT 14/M07 A2982 RMK A01 T01351067  RH  024%=      5-min Rain = 0
KGHS 100840Z 08002KT 13/M07 A2981 RMK A01 T01341068  RH  024%=      5-min Rain = 0
KGHS 100845Z 09003KT 13/M07 A2981 RMK A01 T01311067  RH  025%=      5-min Rain = 0
KGHS 100850Z 11003KT 14/M06 A2981 RMK A01 T01351064  RH  025%=      5-min Rain = 0
KGHS 100855Z 12002KT 14/M07 A298 RMK A01 T01371066  RH  024%=      5-min Rain = 0
KGHS 100900Z 13001KT 13/M07 A298 RMK A01 T01341067  RH  024%=      5-min Rain = 0
KGHS 100905Z 14001KT 13/M07 A298 RMK A01 T01261071  RH  025%=      5-min Rain = 0
KGHS 100910Z 20002KT 12/M08 A298 RMK A01 T01161080  RH  025%=      5-min Rain = 0
KGHS 100915Z 23002KT 10/M09 A2979 RMK A01 T01021090  RH  025%=      5-min Rain = 0
KGHS 100920Z 25003KT 09/M09 A298 RMK A01 T00911094  RH  026%=      5-min Rain = 0
KGHS 100925Z 25004KT 08/M10 A298 RMK A01 T00831095  RH  028%=      5-min Rain = 0
KGHS 100930Z 24005KT 08/M09 A298 RMK A01 T00811093  RH  029%=      5-min Rain = 0
KGHS 100935Z 25004KT 08/M09 A2979 RMK A01 T00811092  RH  029%=      5-min Rain = 0
KGHS 100940Z 23007KT 09/M08 A2979 RMK A01 T00861084  RH  029%=      5-min Rain = 0
KGHS 100945Z 23007KT 10/M08 A2979 RMK A01 T00961080  RH  028%=      5-min Rain = 0
KGHS 100950Z 22006KT 10/M08 A2979 RMK A01 T01011079  RH  028%=      5-min Rain = 0
KGHS 100955Z 22003KT 10/M08 A2978 RMK A01 T00951081  RH  028%=      5-min Rain = 0
KGHS 101000Z 21004KT 10/M08 A2978 RMK A01 T00961078  RH  029%=      5-min Rain = 0
KGHS 101005Z 22005KT 09/M08 A2979 RMK A01 T00931083  RH  028%=      5-min Rain = 0
KGHS 101010Z 22006KT 09/M08 A2979 RMK A01 T00851083  RH  030%=      5-min Rain = 0
KGHS 101015Z 22006KT 08/M08 A2979 RMK A01 T00821083  RH  030%=      5-min Rain = 0
KGHS 101020Z 22007KT 08/M08 A2979 RMK A01 T00791084  RH  031%=      5-min Rain = 0
KGHS 101025Z 23006KT 07/M09 A2978 RMK A01 T00741087  RH  031%=      5-min Rain = 0
KGHS 101030Z 23005KT 07/M09 A2979 RMK A01 T00701087  RH  032%=      5-min Rain = 0
KGHS 101035Z 24006KT 07/M09 A2979 RMK A01 T00691086  RH  032%=      5-min Rain = 0
KGHS 101040Z 25008KT 07/M08 A2979 RMK A01 T00721083  RH  033%=      5-min Rain = 0
KGHS 101045Z 25009KT 07/M08 A2979 RMK A01 T00741082  RH  032%=      5-min Rain = 0
KGHS 101050Z 25009KT 08/M08 A2979 RMK A01 T00771081  RH  032%=      5-min Rain = 0
KGHS 101055Z 26009KT 08/M08 A298 RMK A01 T00821079  RH  031%=      5-min Rain = 0
KGHS 101100Z 26009KT 08/M08 A298 RMK A01 T00821079  RH  031%=      5-min Rain = 0
KGHS 101105Z 26010KT 08/M08 A298 RMK A01 T00831079  RH  031%=      5-min Rain = 0
KGHS 101110Z 25010KT 09/M08 A298 RMK A01 T00861078  RH  031%=      5-min Rain = 0
KGHS 101115Z 26008KT 09/M08 A298 RMK A01 T00861078  RH  031%=      5-min Rain = 0
KGHS 101120Z 26008KT 09/M08 A298 RMK A01 T00861078  RH  031%=      5-min Rain = 0
KGHS 101125Z 26009KT 09/M08 A298 RMK A01 T00871077  RH  031%=      5-min Rain = 0
KGHS 101130Z 26009KT 09/M08 A298 RMK A01 T00851078  RH  031%=      5-min Rain = 0
KGHS 101135Z 26010KT 08/M08 A298 RMK A01 T00841079  RH  031%=      5-min Rain = 0
KGHS 101140Z 26012KT 08/M08 A298 RMK A01 T00841081  RH  030%=      5-min Rain = 0
KGHS 101145Z 25012KT 08/M08 A298 RMK A01 T00821084  RH  030%=      5-min Rain = 0
KGHS 101150Z 25012KT 08/M08 A2979 RMK A01 T00791084  RH  031%=      5-min Rain = 0
KGHS 101155Z 25013KT 08/M09 A298 RMK A01 T00791085  RH  031%=      5-min Rain = 0
KGHS 101200Z 26013KT 08/M09 A298 RMK A01 T00771086  RH  031%=      5-min Rain = 0
KGHS 101205Z 26013KT 08/M09 A298 RMK A01 T00751087  RH  031%=      5-min Rain = 0
KGHS 101210Z 26011KT 07/M09 A298 RMK A01 T00731087  RH  031%=      5-min Rain = 0
KGHS 101215Z 26012KT 08/M09 A298 RMK A01 T00771086  RH  031%=      5-min Rain = 0
KGHS 101220Z 26012KT 08/M09 A298 RMK A01 T00821085  RH  030%=      5-min Rain = 0
KGHS 101225Z 26012KT 08/M09 A298 RMK A01 T00831086  RH  030%=      5-min Rain = 0
KGHS 101230Z 25012KT 09/M09 A298 RMK A01 T00851085  RH  029%=      5-min Rain = 0
KGHS 101235Z 26011KT 09/M09 A298 RMK A01 T00881085  RH  029%=      5-min Rain = 0
KGHS 101240Z 26010KT 09/M09 A298 RMK A01 T00881085  RH  029%=      5-min Rain = 0
KGHS 101245Z 26010KT 09/M09 A298 RMK A01 T00871086  RH  029%=      5-min Rain = 0
KGHS 101250Z 27009KT 09/M09 A298 RMK A01 T00871086  RH  029%=      5-min Rain = 0
KGHS 101255Z 27009KT 09/M09 A298 RMK A01 T00861087  RH  029%=      5-min Rain = 0
KGHS 101300Z 28009KT 08/M09 A298 RMK A01 T00841088  RH  029%=      5-min Rain = 0
KGHS 101305Z 28009KT 08/M09 A298 RMK A01 T00831087  RH  029%=      5-min Rain = 0
KGHS 101310Z 27009KT 09/M09 A298 RMK A01 T00851086  RH  029%=      5-min Rain = 0
KGHS 101315Z 27009KT 09/M09 A298 RMK A01 T00851087  RH  029%=      5-min Rain = 0
KGHS 101320Z 28010KT 08/M09 A298 RMK A01 T00791089  RH  030%=      5-min Rain = 0
KGHS 101325Z 28010KT 08/M09 A298 RMK A01 T00751090  RH  030%=      5-min Rain = 0
KGHS 101330Z 27010KT 08/M09 A298 RMK A01 T00751090  RH  030%=      5-min Rain = 0
KGHS 101335Z 28010KT 07/M09 A298 RMK A01 T00741091  RH  030%=      5-min Rain = 0
KGHS 101340Z 28009KT 07/M09 A298 RMK A01 T00741091  RH  030%=      5-min Rain = 0
KGHS 101345Z 28008KT 08/M09 A2981 RMK A01 T00771087  RH  031%=      5-min Rain = 0
KGHS 101350Z 29007KT 08/M09 A2981 RMK A01 T00811085  RH  030%=      5-min Rain = 0
KGHS 101355Z 30006KT 08/M08 A2981 RMK A01 T00831084  RH  030%=      5-min Rain = 0
KGHS 101400Z 30007KT 09/M08 A2981 RMK A01 T00861083  RH  030%=      5-min Rain = 0
KGHS 101405Z 29008KT 09/M08 A2981 RMK A01 T00891083  RH  029%=      5-min Rain = 0
KGHS 101410Z 29009KT 09/M08 A2981 RMK A01 T00921083  RH  029%=      5-min Rain = 0
KGHS 101415Z 29009KT 09/M08 A2982 RMK A01 T00931082  RH  028%=      5-min Rain = 0
KGHS 101420Z 28009KT 10/M08 A2982 RMK A01 T00961083  RH  028%=      5-min Rain = 0
KGHS 101425Z 29008KT 10/M08 A2982 RMK A01 T00991084  RH  027%=      5-min Rain = 0
KGHS 101430Z 29010KT 10/M08 A2982 RMK A01 T01021082  RH  027%=      5-min Rain = 0
KGHS 101435Z 28010KT 11/M08 A2982 RMK A01 T01101081  RH  026%=      5-min Rain = 0
KGHS 101440Z 28010KT 12/M08 A2982 RMK A01 T01161083  RH  024%=      5-min Rain = 0
KGHS 101445Z 28009KT 12/M08 A2983 RMK A01 T01201083  RH  024%=      5-min Rain = 0
KGHS 101450Z 29009KT 13/M08 A2983 RMK A01 T01251083  RH  023%=      5-min Rain = 0
KGHS 101455Z 30006KT 13/M08 A2982 RMK A01 T01301083  RH  022%=      5-min Rain = 0
KGHS 101500Z 29009KT 14/M09 A2982 RMK A01 T01381085  RH  021%=      5-min Rain = 0
KGHS 101505Z 29010KT 15/M09 A2982 RMK A01 T01461085  RH  020%=      5-min Rain = 0
KGHS 101510Z 28011KT 15/M09 A2982 RMK A01 T01521087  RH  019%=      5-min Rain = 0
KGHS 101515Z 28011KT 16/M09 A2982 RMK A01 T01591090  RH  017%=      5-min Rain = 0
KGHS 101520Z 29011KT 16/M09 A2982 RMK A01 T01631090  RH  017%=      5-min Rain = 0
KGHS 101525Z 29008KT 17/M09 A2982 RMK A01 T01681089  RH  017%=      5-min Rain = 0
KGHS 101530Z 28008KT 17/M09 A2982 RMK A01 T01721088  RH  016%=      5-min Rain = 0
KGHS 101535Z 29005KT 18/M09 A2982 RMK A01 T01781086  RH  016%=      5-min Rain = 0
KGHS 101540Z 29007KT 19/M09 A2982 RMK A01 T01861089  RH  015%=      5-min Rain = 0
KGHS 101545Z 29009KT 20/M09 A2982 RMK A01 T01951089  RH  014%=      5-min Rain = 0
KGHS 101550Z 30010KT 20/M09 A2982 RMK A01 T02021089  RH  013%=      5-min Rain = 0
KGHS 101555Z 29009KT 20/M09 A2982 RMK A01 T02041090  RH  013%=      5-min Rain = 0
KGHS 101600Z 30011KT 21/M09 A2982 RMK A01 T02081091  RH  013%=      5-min Rain = 0
KGHS 101605Z 30013KT 21/M10 A2982 RMK A01 T02111095  RH  012%=      5-min Rain = 0
KGHS 101610Z 30011G17KT 22/M10 A2982 RMK A01 T02181097  RH  011%=      5-min Rain = 0
KGHS 101615Z 30013KT 22/M10 A2982 RMK A01 T02231101  RH  011%=      5-min Rain = 0
KGHS 101620Z 30015KT 23/M11 A2981 RMK A01 T02251107  RH  010%=      5-min Rain = 0
KGHS 101625Z 29014G19KT 23/M10 A2981 RMK A01 T02281104  RH  010%=      5-min Rain = 0
KGHS 101630Z 31014G19KT 23/M11 A2981 RMK A01 T02301110  RH  010%=      5-min Rain = 0
KGHS 101635Z 31015KT 23/M11 A2981 RMK A01 T02341112  RH  009%=      5-min Rain = 0
KGHS 101640Z 30015G20KT 24/M11 A2982 RMK A01 T02351112  RH  009%=      5-min Rain = 0
KGHS 101645Z 30015KT 24/M11 A2982 RMK A01 T02391113  RH  009%=      5-min Rain = 0
KGHS 101650Z 30017KT 24/M11 A2982 RMK A01 T02421112  RH  009%=      5-min Rain = 0
KGHS 101655Z 30017KT 25/M11 A2982 RMK A01 T02461114  RH  008%=      5-min Rain = 0
KGHS 101700Z 31017G23KT 25/M12 A2981 RMK A01 T02511121  RH  008%=      5-min Rain = 0
KGHS 101705Z 31017G22KT 25/M12 A2981 RMK A01 T02471124  RH  008%=      5-min Rain = 0
KGHS 101710Z 32017G22KT 25/M13 A2982 RMK A01 T02461128  RH  008%=      5-min Rain = 0
KGHS 101715Z 32016G22KT 25/M13 A2982 RMK A01 T02461128  RH  008%=      5-min Rain = 0
KGHS 101720Z 31017KT 25/M13 A2982 RMK A01 T02451128  RH  008%=      5-min Rain = 0
KGHS 101725Z 31016KT 24/M13 A2982 RMK A01 T02441127  RH  008%=      5-min Rain = 0
KGHS 101730Z 31016KT 25/M13 A2983 RMK A01 T02451127  RH  008%=      5-min Rain = 0
KGHS 101735Z 31015KT 25/M12 A2983 RMK A01 T02461121  RH  008%=      5-min Rain = 0
KGHS 101740Z 32015G20KT 25/M12 A2983 RMK A01 T02531122  RH  008%=      5-min Rain = 0
KGHS 101745Z 30015G21KT 26/M12 A2982 RMK A01 T02601122  RH  007%=      5-min Rain = 0
KGHS 101750Z 32016G21KT 26/M13 A2982 RMK A01 T02591126  RH  007%=      5-min Rain = 0
KGHS 101755Z 31015KT 26/M13 A2982 RMK A01 T02571127  RH  007%=      5-min Rain = 0
KGHS 101800Z 31014KT 26/M13 A2982 RMK A01 T02571128  RH  007%=      5-min Rain = 0
KGHS 101805Z 32012KT 26/M13 A2982 RMK A01 T02571127  RH  007%=      5-min Rain = 0
KGHS 101810Z 32014G20KT 26/M13 A2982 RMK A01 T02591127  RH  007%=      5-min Rain = 0
KGHS 101815Z 31014G20KT 26/M13 A2982 RMK A01 T02571125  RH  007%=      5-min Rain = 0
KGHS 101820Z 30012G18KT 26/M12 A2981 RMK A01 T02621121  RH  007%=      5-min Rain = 0
KGHS 101825Z 31011G16KT 27/M12 A2981 RMK A01 T02691121  RH  007%=      5-min Rain = 0
KGHS 101830Z 30013KT 27/M12 A2981 RMK A01 T02691124  RH  007%=      5-min Rain = 0
KGHS 101835Z 30012G19KT 27/M13 A2981 RMK A01 T02681127  RH  007%=      5-min Rain = 0
KGHS 101840Z 31012KT 27/M13 A2981 RMK A01 T02711127  RH  007%=      5-min Rain = 0
KGHS 101845Z 32011KT 27/M13 A2981 RMK A01 T02701129  RH  006%=      5-min Rain = 0
KGHS 101850Z 31010G16KT 27/M13 A298 RMK A01 T02701128  RH  007%=      5-min Rain = 0
KGHS 101855Z 30010G18KT 28/M13 A298 RMK A01 T02751127  RH  006%=      5-min Rain = 0
KGHS 101900Z 30011G20KT 28/M13 A298 RMK A01 T02771129  RH  006%=      5-min Rain = 0
KGHS 101905Z 32009G17KT 28/M13 A298 RMK A01 T02751127  RH  006%=      5-min Rain = 0
KGHS 101910Z 30011G20KT 27/M13 A2979 RMK A01 T02731129  RH  006%=      5-min Rain = 0
KGHS 101915Z 31006G12KT 27/M13 A2979 RMK A01 T02711129  RH  006%=      5-min Rain = 0
KGHS 101920Z 28012KT 27/M13 A2978 RMK A01 T02741133  RH  006%=      5-min Rain = 0
KGHS 101925Z 32012G17KT 27/M14 A2978 RMK A01 T02741135  RH  006%=      5-min Rain = 0
KGHS 101930Z 29011KT 28/M13 A2978 RMK A01 T02771134  RH  006%=      5-min Rain = 0
KGHS 101935Z 30015G26KT 28/M14 A2978 RMK A01 T02781135  RH  006%=      5-min Rain = 0
KGHS 101940Z 30014G21KT 28/M14 A2978 RMK A01 T02791136  RH  006%=      5-min Rain = 0
KGHS 101945Z 31013G21KT 28/M14 A2977 RMK A01 T02791136  RH  006%=      5-min Rain = 0
KGHS 101950Z 30017G24KT 28/M14 A2977 RMK A01 T02791138  RH  006%=      5-min Rain = 0
KGHS 101955Z 30012G21KT 28/M14 A2976 RMK A01 T02781138  RH  006%=      5-min Rain = 0
KGHS 102000Z 30015G23KT 28/M14 A2976 RMK A01 T02821139  RH  006%=      5-min Rain = 0
KGHS 102005Z 30008G14KT 28/M14 A2976 RMK A01 T02801140  RH  006%=      5-min Rain = 0
KGHS 102010Z 28013G22KT 28/M14 A2976 RMK A01 T02831141  RH  005%=      5-min Rain = 0
KGHS 102015Z 28014G20KT 28/M14 A2976 RMK A01 T02821139  RH  006%=      5-min Rain = 0
KGHS 102020Z 29013G24KT 29/M14 A2975 RMK A01 T02851138  RH  006%=      5-min Rain = 0
KGHS 102025Z 28017G24KT 28/M14 A2975 RMK A01 T02831141  RH  005%=      5-min Rain = 0
KGHS 102030Z 29017G25KT 28/M14 A2975 RMK A01 T02811139  RH  006%=      5-min Rain = 0
KGHS 102035Z 29014G27KT 28/M14 A2975 RMK A01 T02821135  RH  006%=      5-min Rain = 0
KGHS 102040Z 29017G23KT 29/M13 A2975 RMK A01 T02861134  RH  006%=      5-min Rain = 0
KGHS 102045Z 30014G20KT 29/M14 A2975 RMK A01 T02861136  RH  006%=      5-min Rain = 0
KGHS 102050Z 30015G24KT 29/M14 A2975 RMK A01 T02881136  RH  005%=      5-min Rain = 0
KGHS 102055Z 29016G26KT 29/M14 A2974 RMK A01 T02861137  RH  005%=      5-min Rain = 0
KGHS 102100Z 29016G22KT 29/M14 A2975 RMK A01 T02871140  RH  005%=      5-min Rain = 0
KGHS 102105Z 28013G22KT 29/M14 A2974 RMK A01 T02851137  RH  006%=      5-min Rain = 0
KGHS 102110Z 30016G22KT 28/M14 A2974 RMK A01 T02841141  RH  005%=      5-min Rain = 0
KGHS 102115Z 31011G18KT 28/M14 A2975 RMK A01 T02831144  RH  005%=      5-min Rain = 0
KGHS 102120Z 30013G21KT 29/M14 A2974 RMK A01 T02861137  RH  006%=      5-min Rain = 0
KGHS 102125Z 27015G21KT 29/M14 A2974 RMK A01 T02851136  RH  006%=      5-min Rain = 0
KGHS 102130Z 27016G25KT 28/M14 A2974 RMK A01 T02821136  RH  006%=      5-min Rain = 0
KGHS 102135Z 28014G20KT 28/M14 A2974 RMK A01 T02841135  RH  006%=      5-min Rain = 0
KGHS 102140Z 29019G26KT 28/M14 A2974 RMK A01 T02841138  RH  006%=      5-min Rain = 0
KGHS 102145Z 30011G16KT 28/M14 A2975 RMK A01 T02801135  RH  006%=      5-min Rain = 0
KGHS 102150Z 30013G18KT 28/M13 A2974 RMK A01 T02841134  RH  006%=      5-min Rain = 0
KGHS 102155Z 31015G22KT 28/M14 A2974 RMK A01 T02801139  RH  006%=      5-min Rain = 0
KGHS 102200Z 29016G22KT 28/M14 A2974 RMK A01 T02791136  RH  006%=      5-min Rain = 0
KGHS 102205Z 29017G22KT 28/M13 A2974 RMK A01 T02791134  RH  006%=      5-min Rain = 0
KGHS 102210Z 30015G20KT 28/M13 A2974 RMK A01 T02781133  RH  006%=      5-min Rain = 0
KGHS 102215Z 29014KT 28/M13 A2974 RMK A01 T02771131  RH  006%=      5-min Rain = 0
KGHS 102220Z 29017G22KT 28/M13 A2974 RMK A01 T02761131  RH  006%=      5-min Rain = 0
KGHS 102225Z 29017G22KT 27/M13 A2974 RMK A01 T02721131  RH  006%=      5-min Rain = 0
KGHS 102230Z 29009KT 27/M13 A2974 RMK A01 T02711129  RH  006%=      5-min Rain = 0
KGHS 102235Z 28014G20KT 27/M13 A2974 RMK A01 T02711130  RH  006%=      5-min Rain = 0
KGHS 102240Z 28013G19KT 27/M13 A2974 RMK A01 T02691129  RH  006%=      5-min Rain = 0
KGHS 102245Z 30012KT 27/M13 A2974 RMK A01 T02681127  RH  007%=      5-min Rain = 0
KGHS 102250Z 29011KT 27/M13 A2975 RMK A01 T02681127  RH  007%=      5-min Rain = 0
KGHS 102255Z 30011G16KT 27/M13 A2975 RMK A01 T02661127  RH  007%=      5-min Rain = 0
KGHS 102300Z 30010KT 27/M13 A2975 RMK A01 T02661125  RH  007%=      5-min Rain = 0
KGHS 102305Z 29009KT 27/M12 A2975 RMK A01 T02691123  RH  007%=      5-min Rain = 0
KGHS 102310Z 29011KT 27/M12 A2975 RMK A01 T02691123  RH  007%=      5-min Rain = 0
KGHS 102315Z 31011KT 27/M12 A2975 RMK A01 T02671122  RH  007%=      5-min Rain = 0
KGHS 102320Z 31009KT 27/M12 A2975 RMK A01 T02661122  RH  007%=      5-min Rain = 0
KGHS 102325Z 30009G15KT 27/M12 A2975 RMK A01 T02651121  RH  007%=      5-min Rain = 0
KGHS 102330Z 29012KT 26/M12 A2975 RMK A01 T02641120  RH  007%=      5-min Rain = 0
KGHS 102335Z 30011G16KT 26/M12 A2975 RMK A01 T02641121  RH  007%=      5-min Rain = 0
KGHS 102340Z 30008KT 26/M12 A2976 RMK A01 T02631119  RH  007%=      5-min Rain = 0
KGHS 102345Z 30009KT 26/M12 A2976 RMK A01 T02631118  RH  007%=      5-min Rain = 0
KGHS 102350Z 29009KT 26/M12 A2976 RMK A01 T02621119  RH  007%=      5-min Rain = 0
KGHS 102355Z 29009KT 26/M12 A2976 RMK A01 T02611119  RH  007%=      5-min Rain = 0
KGHS 110000Z 28009G14KT 26/M12 A2976 RMK A01 T02601119  RH  007%=      5-min Rain = 0
KGHS 110005Z 28009G14KT 26/M12 A2976 RMK A01 T02591118  RH  008%=      5-min Rain = 0
KGHS 110010Z 27009KT 26/M12 A2977 RMK A01 T02571116  RH  008%=      5-min Rain = 0
KGHS 110015Z 27008KT 26/M11 A2977 RMK A01 T02561114  RH  008%=      5-min Rain = 0
KGHS 110020Z 28009KT 25/M11 A2977 RMK A01 T02541114  RH  008%=      5-min Rain = 0
KGHS 110025Z 28008KT 25/M12 A2977 RMK A01 T02521115  RH  008%=      5-min Rain = 0
KGHS 110030Z 28007KT 25/M11 A2977 RMK A01 T02491114  RH  008%=      5-min Rain = 0
KGHS 110035Z 28008KT 25/M11 A2977 RMK A01 T02461113  RH  008%=      5-min Rain = 0
KGHS 110040Z 30008KT 24/M11 A2978 RMK A01 T02431113  RH  009%=      5-min Rain = 0
KGHS 110045Z 30009KT 24/M11 A2978 RMK A01 T02401113  RH  009%=      5-min Rain = 0
KGHS 110050Z 30008KT 24/M11 A2978 RMK A01 T02371112  RH  009%=      5-min Rain = 0
KGHS 110055Z 31008KT 23/M11 A2978 RMK A01 T02321111  RH  009%=      5-min Rain = 0
KGHS 110100Z 31008KT 23/M11 A2978 RMK A01 T02291111  RH  010%=      5-min Rain = 0
KGHS 110105Z 30008KT 23/M11 A2978 RMK A01 T02271110  RH  010%=      5-min Rain = 0
KGHS 110110Z 30007KT 23/M11 A2978 RMK A01 T02251110  RH  010%=      5-min Rain = 0
KGHS 110115Z 28005KT 22/M11 A2978 RMK A01 T02221110  RH  010%=      5-min Rain = 0
KGHS 110120Z 29005KT 22/M11 A2978 RMK A01 T02211111  RH  010%=      5-min Rain = 0
KGHS 110125Z 29006KT 22/M11 A2978 RMK A01 T02221111  RH  010%=      5-min Rain = 0
KGHS 110130Z 29005KT 22/M11 A2978 RMK A01 T02211111  RH  010%=      5-min Rain = 0
KGHS 110135Z 29006KT 22/M11 A2978 RMK A01 T02211111  RH  010%=      5-min Rain = 0
KGHS 110140Z 30006KT 22/M11 A2979 RMK A01 T02211112  RH  010%=      5-min Rain = 0
KGHS 110145Z 29006KT 22/M11 A2979 RMK A01 T02211111  RH  010%=      5-min Rain = 0
KGHS 110150Z 28005KT 22/M11 A2979 RMK A01 T02211111  RH  010%=      5-min Rain = 0
KGHS 110155Z 28006KT 22/M11 A298 RMK A01 T02191111  RH  010%=      5-min Rain = 0
KGHS 110200Z 28006KT 22/M11 A298 RMK A01 T02161111  RH  010%=      5-min Rain = 0
KGHS 110205Z 29007KT 22/M11 A298 RMK A01 T02151111  RH  010%=      5-min Rain = 0
KGHS 110210Z 29008KT 22/M11 A298 RMK A01 T02151111  RH  010%=      5-min Rain = 0
KGHS 110215Z 28007KT 22/M11 A298 RMK A01 T02161110  RH  010%=      5-min Rain = 0
KGHS 110220Z 28007KT 22/M11 A298 RMK A01 T02171110  RH  010%=      5-min Rain = 0
KGHS 110225Z 28007KT 22/M11 A2981 RMK A01 T02191111  RH  010%=      5-min Rain = 0
KGHS 110230Z 28007KT 22/M11 A2981 RMK A01 T02191111  RH  010%=      5-min Rain = 0
KGHS 110235Z 28007KT 22/M11 A2981 RMK A01 T02191111  RH  010%=      5-min Rain = 0
KGHS 110240Z 27006KT 22/M11 A2981 RMK A01 T02171111  RH  010%=      5-min Rain = 0
KGHS 110245Z 27006KT 21/M11 A2981 RMK A01 T02141110  RH  011%=      5-min Rain = 0
KGHS 110250Z 26006KT 21/M11 A2981 RMK A01 T02111111  RH  011%=      5-min Rain = 0
KGHS 110255Z 27006KT 21/M11 A2981 RMK A01 T02091110  RH  011%=      5-min Rain = 0
KGHS 110300Z 27006KT 21/M11 A2981 RMK A01 T02071110  RH  011%=      5-min Rain = 0
KGHS 110305Z 28007KT 21/M11 A2981 RMK A01 T02061110  RH  011%=      5-min Rain = 0
KGHS 110310Z 27008KT 21/M11 A2981 RMK A01 T02071111  RH  011%=      5-min Rain = 0
KGHS 110315Z 27008KT 21/M11 A2982 RMK A01 T02061110  RH  011%=      5-min Rain = 0
KGHS 110320Z 28008KT 20/M11 A2982 RMK A01 T02031111  RH  011%=      5-min Rain = 0
KGHS 110325Z 28008KT 20/M11 A2982 RMK A01 T02041112  RH  011%=      5-min Rain = 0
KGHS 110330Z 25008KT 20/M11 A2982 RMK A01 T02031111  RH  011%=      5-min Rain = 0
KGHS 110335Z 26009KT 20/M11 A2982 RMK A01 T02021111  RH  011%=      5-min Rain = 0
KGHS 110340Z 27009KT 20/M11 A2983 RMK A01 T02041110  RH  011%=      5-min Rain = 0
KGHS 110345Z 27008KT 20/M11 A2983 RMK A01 T02041110  RH  011%=      5-min Rain = 0
KGHS 110350Z 26009KT 20/M11 A2983 RMK A01 T02041109  RH  011%=      5-min Rain = 0
KGHS 110355Z 27008KT 20/M11 A2983 RMK A01 T02031110  RH  011%=      5-min Rain = 0
KGHS 110400Z 27008KT 20/M11 A2983 RMK A01 T02041110  RH  011%=      5-min Rain = 0
KGHS 110405Z 27009KT 21/M11 A2983 RMK A01 T02051109  RH  011%=      5-min Rain = 0
KGHS 110410Z 28009KT 21/M11 A2983 RMK A01 T02051109  RH  011%=      5-min Rain = 0
KGHS 110415Z 27008KT 20/M11 A2983 RMK A01 T02021109  RH  011%=      5-min Rain = 0
KGHS 110420Z 27008KT 20/M11 A2983 RMK A01 T02021108  RH  012%=      5-min Rain = 0
KGHS 110425Z 27008KT 20/M11 A2983 RMK A01 T02011107  RH  012%=      5-min Rain = 0
KGHS 110430Z 26009KT 20/M11 A2983 RMK A01 T01971107  RH  012%=      5-min Rain = 0
KGHS 110435Z 26010KT 20/M11 A2983 RMK A01 T01951106  RH  012%=      5-min Rain = 0
KGHS 110440Z 28009KT 19/M11 A2983 RMK A01 T01941106  RH  012%=      5-min Rain = 0
KGHS 110445Z 31011G18KT 19/M11 A2984 RMK A01 T01931105  RH  012%=      5-min Rain = 0
KGHS 110450Z 33013G20KT 19/M11 A2985 RMK A01 T01921107  RH  012%=      5-min Rain = 0
KGHS 110455Z 30009KT 19/M11 A2985 RMK A01 T01941107  RH  012%=      5-min Rain = 0
KGHS 110500Z 31010G15KT 19/M11 A2985 RMK A01 T01921108  RH  012%=      5-min Rain = 0
KGHS 110505Z 35004G10KT 20/M11 A2986 RMK A01 T01981113  RH  011%=      5-min Rain = 0
KGHS 110510Z 27006KT 20/M11 A2986 RMK A01 T01951109  RH  012%=      5-min Rain = 0
KGHS 110515Z 30004KT 19/M11 A2986 RMK A01 T01901111  RH  012%=      5-min Rain = 0
KGHS 110520Z 32006KT 19/M11 A2986 RMK A01 T01901112  RH  012%=      5-min Rain = 0
KGHS 110525Z 31007KT 19/M11 A2986 RMK A01 T01871112  RH  012%=      5-min Rain = 0
KGHS 110530Z 33008KT 19/M11 A2986 RMK A01 T01891114  RH  012%=      5-min Rain = 0
KGHS 110535Z 33012KT 19/M11 A2986 RMK A01 T01871114  RH  012%=      5-min Rain = 0
KGHS 110540Z 35013KT 18/M12 A2986 RMK A01 T01821116  RH  012%=      5-min Rain = 0
KGHS 110545Z 00014KT 18/M12 A2986 RMK A01 T01821115  RH  012%=      5-min Rain = 0
KGHS 110550Z 34014KT 18/M11 A2987 RMK A01 T01771113  RH  013%=      5-min Rain = 0
KGHS 110555Z 35016KT 18/M12 A2986 RMK A01 T01751115  RH  013%=      5-min Rain = 0

Page generated in 0.009 seconds.